Time;durP1;ratioP1;P1;durP2;ratioP2;P2;SDS_P1;SDS_P2;PMS_P1;PMS_P2;Temp;Humidity;BMP_temperature;BMP_pressure;BME280_temperature;BME280_humidity;BME280_pressure;Samples;Min_cycle;Max_cycle;Signal;HPM_P1;HPM_P2
2022/01/05 00:00:15;;;;;;;;;;;;;;;;;;1037879;28;4343;-70
2022/01/05 00:01:08;;;;;;;;;;;;;;;;;;1041250;28;4221;-68
2022/01/05 00:01:38;;;;;;;;;;;;;;;;;;1041950;28;3690;-70
2022/01/05 00:02:09;;;;;;;;;;;;;;;;;;1041844;28;3900;-70
2022/01/05 00:02:42;;;;;;;;;;;;;;;;;;1043543;28;3850;-69
2022/01/05 00:03:12;;;;;;;;;;;;;;;;;;1043705;28;4227;-70
2022/01/05 00:03:43;;;;;;;;;;;;;;;;;;1043536;28;1716;-69
2022/01/05 00:04:13;;;;;;;;;;;;;;;;;;1042931;28;4331;-70
2022/01/05 00:04:43;;;;;;;;;;;;;;;;;;1043286;28;2295;-70
2022/01/05 00:05:14;;;;;;;;;;;;;;;;;;1043039;28;4024;-68
2022/01/05 00:05:44;;;;;;;;;;;;;;;;;;1043819;28;1937;-69
2022/01/05 00:06:14;;;;;;;;;;;;;;;;;;1043847;28;3890;-70
2022/01/05 00:06:44;;;;;;;;;;;;;;;;;;1044944;28;1644;-70
2022/01/05 00:07:15;;;;;;;;;;;;;;;;;;1044291;28;3813;-69
2022/01/05 00:07:45;;;;;;;;;;;;;;;;;;1044388;28;1649;-69
2022/01/05 00:08:18;;;;;;;;;;;;;;;;;;1043172;28;3888;-70
2022/01/05 00:08:48;;;;;;;;;;;;;;;;;;1043158;28;1978;-70
2022/01/05 00:09:18;;;;;;;;;;;;;;;;;;1041819;28;4140;-69
2022/01/05 00:09:49;;;;;;;;;;;;;;;;;;1042733;28;3693;-69
2022/01/05 00:10:19;;;;;;;;;;;;;;;;;;1042308;28;4367;-70
2022/01/05 00:10:49;;;;;;;;;;;;;;;;;;1044309;28;3383;-70
2022/01/05 00:11:19;;;;;;;;;;;;;;;;;;1043958;28;3815;-69
2022/01/05 00:11:50;;;;;;;;;;;;;;;;;;1042194;28;3910;-68
2022/01/05 00:12:20;;;;;;;;;;;;;;;;;;1043230;28;4072;-69
2022/01/05 00:12:50;;;;;;;;;;;;;;;;;;1043865;28;4046;-71
2022/01/05 00:13:21;;;;;;;;;;;;;;;;;;1042326;28;3961;-69
2022/01/05 00:13:51;;;;;;;;;;;;;;;;;;1043461;28;3799;-70
2022/01/05 00:14:21;;;;;;;;;;;;;;;;;;1043610;28;1666;-69
2022/01/05 00:14:52;;;;;;;;;;;;;;;;;;1044137;28;4270;-69
2022/01/05 00:15:22;;;;;;;;;;;;;;;;;;1043142;28;4078;-70
2022/01/05 00:15:52;;;;;;;;;;;;;;;;;;1044506;28;4054;-69
2022/01/05 00:16:22;;;;;;;;;;;;;;;;;;1043139;28;2019;-69
2022/01/05 00:16:53;;;;;;;;;;;;;;;;;;1044827;28;3839;-70
2022/01/05 00:17:23;;;;;;;;;;;;;;;;;;1043258;28;1683;-70
2022/01/05 00:17:53;;;;;;;;;;;;;;;;;;1043327;28;3873;-69
2022/01/05 00:18:23;;;;;;;;;;;;;;;;;;1044680;28;1865;-70
2022/01/05 00:18:54;;;;;;;;;;;;;;;;;;1043745;28;3956;-70
2022/01/05 00:19:24;;;;;;;;;;;;;;;;;;1042944;28;3501;-69
2022/01/05 00:19:55;;;;;;;;;;;;;;;;;;1043651;28;4082;-70
2022/01/05 00:20:25;;;;;;;;;;;;;;;;;;1043818;28;3317;-67
2022/01/05 00:20:56;;;;;;;;;;;;;;;;;;1043629;28;3998;-70
2022/01/05 00:21:26;;;;;;;;;;;;;;;;;;1042912;28;1698;-68
2022/01/05 00:21:57;;;;;;;;;;;;;;;;;;1044886;28;4128;-69
2022/01/05 00:22:27;;;;;;;;;;;;;;;;;;1044882;28;2116;-70
2022/01/05 00:22:57;;;;;;;;;;;;;;;;;;1042792;28;3920;-69
2022/01/05 00:23:27;;;;;;;;;;;;;;;;;;1044722;28;3019;-69
2022/01/05 00:23:57;;;;;;;;;;;;;;;;;;1043870;28;3808;-70
2022/01/05 00:24:28;;;;;;;;;;;;;;;;;;1041950;28;1758;-69
2022/01/05 00:24:58;;;;;;;;;;;;;;;;;;1039943;28;3992;-71
2022/01/05 00:25:28;;;;;;;;;;;;;;;;;;1040739;28;4338;-71
2022/01/05 00:26:01;;;;;;;;;;;;;;;;;;1041112;28;4129;-69
2022/01/05 00:26:31;;;;;;;;;;;;;;;;;;1043730;28;1685;-70
2022/01/05 00:27:02;;;;;;;;;;;;;;;;;;1042570;28;4079;-69
2022/01/05 00:27:33;;;;;;;;;;;;;;;;;;1043291;28;1765;-68
2022/01/05 00:28:03;;;;;;;;;;;;;;;;;;1042437;28;3884;-71
2022/01/05 00:28:33;;;;;;;;;;;;;;;;;;1043354;28;3591;-69
2022/01/05 00:29:04;;;;;;;;;;;;;;;;;;1043950;28;3815;-71
2022/01/05 00:29:34;;;;;;;;;;;;;;;;;;1043928;28;3565;-70
2022/01/05 00:30:05;;;;;;;;;;;;;;;;;;1042872;28;4031;-70
2022/01/05 00:30:35;;;;;;;;;;;;;;;;;;1043251;28;3416;-71
2022/01/05 00:31:05;;;;;;;;;;;;;;;;;;1044127;28;3900;-69
2022/01/05 00:31:35;;;;;;;;;;;;;;;;;;1042894;28;3671;-70
2022/01/05 00:32:06;;;;;;;;;;;;;;;;;;1043236;28;4083;-69
2022/01/05 00:32:36;;;;;;;;;;;;;;;;;;1042760;28;1864;-70
2022/01/05 00:33:07;;;;;;;;;;;;;;;;;;1042920;28;3900;-70
2022/01/05 00:33:37;;;;;;;;;;;;;;;;;;1044010;28;1771;-70
2022/01/05 00:34:07;;;;;;;;;;;;;;;;;;1044404;28;3912;-70
2022/01/05 00:34:37;;;;;;;;;;;;;;;;;;1043641;28;3951;-68
2022/01/05 00:35:08;;;;;;;;;;;;;;;;;;1043547;28;4323;-70
2022/01/05 00:35:38;;;;;;;;;;;;;;;;;;1044345;28;1738;-71
2022/01/05 00:36:08;;;;;;;;;;;;;;;;;;1042137;28;3945;-69
2022/01/05 00:36:39;;;;;;;;;;;;;;;;;;1041563;28;2284;-68
2022/01/05 00:37:09;;;;;;;;;;;;;;;;;;1041412;28;4050;-70
2022/01/05 00:37:39;;;;;;;;;;;;;;;;;;1041810;28;1658;-70
2022/01/05 00:38:09;;;;;;;;;;;;;;;;;;1041428;28;4056;-71
2022/01/05 00:38:40;;;;;;;;;;;;;;;;;;1048534;28;1933;-70
2022/01/05 00:39:10;;;;;;;;;;;;;;;;;;1048814;28;4060;-70
2022/01/05 00:39:41;;;;;;;;;;;;;;;;;;1047756;28;1646;-70
2022/01/05 00:40:11;;;;;;;;;;;;;;;;;;1046723;28;4099;-69
2022/01/05 00:40:41;;;;;;;;;;;;;;;;;;1046825;28;4169;-70
2022/01/05 00:41:12;;;;;;;;;;;;;;;;;;1048910;28;3889;-70
2022/01/05 00:41:42;;;;;;;;;;;;;;;;;;1046916;28;4515;-71
2022/01/05 00:42:14;;;;;;;;;;;;;;;;;;1049008;28;4037;-69
2022/01/05 00:42:44;;;;;;;;;;;;;;;;;;1047636;28;2150;-70
2022/01/05 00:43:15;;;;;;;;;;;;;;;;;;1046822;28;4056;-69
2022/01/05 00:43:45;;;;;;;;;;;;;;;;;;1046639;28;3189;-68
2022/01/05 00:44:15;;;;;;;;;;;;;;;;;;1047684;28;3788;-70
2022/01/05 00:44:45;;;;;;;;;;;;;;;;;;1047828;28;3687;-70
2022/01/05 00:45:16;;;;;;;;;;;;;;;;;;1047337;28;4045;-70
2022/01/05 00:45:46;;;;;;;;;;;;;;;;;;1049843;28;2203;-69
2022/01/05 00:46:16;;;;;;;;;;;;;;;;;;1049264;28;3940;-71
2022/01/05 00:46:47;;;;;;;;;;;;;;;;;;1049513;28;1840;-70
2022/01/05 00:47:17;;;;;;;;;;;;;;;;;;1049744;28;3990;-69
2022/01/05 00:47:47;;;;;;;;;;;;;;;;;;1048487;28;2976;-71
2022/01/05 00:48:18;;;;;;;;;;;;;;;;;;1047707;28;3958;-70
2022/01/05 00:48:48;;;;;;;;;;;;;;;;;;1046679;28;3086;-70
2022/01/05 00:49:18;;;;;;;;;;;;;;;;;;1046784;28;4430;-68
2022/01/05 00:49:48;;;;;;;;;;;;;;;;;;1047612;28;3842;-69
2022/01/05 00:50:19;;;;;;;;;;;;;;;;;;1047673;28;4053;-69
2022/01/05 00:50:49;;;;;;;;;;;;;;;;;;1046910;28;2668;-68
2022/01/05 00:51:19;;;;;;;;;;;;;;;;;;1046591;28;3938;-69
2022/01/05 00:51:49;;;;;;;;;;;;;;;;;;1048652;28;3478;-70
2022/01/05 00:52:20;;;;;;;;;;;;;;;;;;1048098;28;3776;-70
2022/01/05 00:52:50;;;;;;;;;;;;;;;;;;1046081;28;3197;-71
2022/01/05 00:53:20;;;;;;;;;;;;;;;;;;1045860;28;3718;-70
2022/01/05 00:53:50;;;;;;;;;;;;;;;;;;1046713;28;4473;-70
2022/01/05 00:54:21;;;;;;;;;;;;;;;;;;1049477;28;1673;-70
2022/01/05 00:54:51;;;;;;;;;;;;;;;;;;1050453;28;4192;-69
2022/01/05 00:55:21;;;;;;;;;;;;;;;;;;1051679;28;2173;-70
2022/01/05 00:55:52;;;;;;;;;;;;;;;;;;1050044;28;3904;-71
2022/01/05 00:56:22;;;;;;;;;;;;;;;;;;1051465;27;3352;-71
2022/01/05 00:56:53;;;;;;;;;;;;;;;;;;1048093;28;3887;-68
2022/01/05 00:57:23;;;;;;;;;;;;;;;;;;1048858;28;1681;-70
2022/01/05 00:57:53;;;;;;;;;;;;;;;;;;1046797;28;4983;-70
2022/01/05 00:58:23;;;;;;;;;;;;;;;;;;1045755;28;3623;-69
2022/01/05 00:58:54;;;;;;;;;;;;;;;;;;1048587;28;3802;-70
2022/01/05 00:59:24;;;;;;;;;;;;;;;;;;1047034;28;2429;-69
2022/01/05 00:59:55;;;;;;;;;;;;;;;;;;1046895;28;3990;-70
2022/01/05 01:00:25;;;;;;;;;;;;;;;;;;1044781;28;3807;-68
2022/01/05 01:00:56;;;;;;;;;;;;;;;;;;1051516;28;4221;-69
2022/01/05 01:01:26;;;;;;;;;;;;;;;;;;1050877;28;3752;-69
2022/01/05 01:01:57;;;;;;;;;;;;;;;;;;1051156;28;3869;-68
2022/01/05 01:02:27;;;;;;;;;;;;;;;;;;1050798;28;3675;-70
2022/01/05 01:02:57;;;;;;;;;;;;;;;;;;1047687;28;4090;-70
2022/01/05 01:03:28;;;;;;;;;;;;;;;;;;1048923;28;1543;-69
2022/01/05 01:03:58;;;;;;;;;;;;;;;;;;1048749;28;3792;-69
2022/01/05 01:04:28;;;;;;;;;;;;;;;;;;1048146;28;1942;-70
2022/01/05 01:04:58;;;;;;;;;;;;;;;;;;1046948;28;3829;-69
2022/01/05 01:05:29;;;;;;;;;;;;;;;;;;1047370;28;1749;-70
2022/01/05 01:06:00;;;;;;;;;;;;;;;;;;1049595;28;4162;-70
2022/01/05 01:06:31;;;;;;;;;;;;;;;;;;1049475;28;1671;-69
2022/01/05 01:07:01;;;;;;;;;;;;;;;;;;1048762;28;4201;-70
2022/01/05 01:07:31;;;;;;;;;;;;;;;;;;1049323;28;2414;-70
2022/01/05 01:08:01;;;;;;;;;;;;;;;;;;1047509;28;4055;-70
2022/01/05 01:08:32;;;;;;;;;;;;;;;;;;1047184;28;1607;-70
2022/01/05 01:09:02;;;;;;;;;;;;;;;;;;1048136;28;3983;-70
2022/01/05 01:09:32;;;;;;;;;;;;;;;;;;1046707;28;3753;-69
2022/01/05 01:10:03;;;;;;;;;;;;;;;;;;1046829;28;3977;-70
2022/01/05 01:10:33;;;;;;;;;;;;;;;;;;1048668;28;3593;-69
2022/01/05 01:11:03;;;;;;;;;;;;;;;;;;1049248;28;4069;-70
2022/01/05 01:11:34;;;;;;;;;;;;;;;;;;1046362;28;1673;-69
2022/01/05 01:12:05;;;;;;;;;;;;;;;;;;1046872;28;4352;-69
2022/01/05 01:12:35;;;;;;;;;;;;;;;;;;1047498;28;2135;-70
2022/01/05 01:13:05;;;;;;;;;;;;;;;;;;1047370;28;3987;-69
2022/01/05 01:13:36;;;;;;;;;;;;;;;;;;1047811;28;3321;-70
2022/01/05 01:14:06;;;;;;;;;;;;;;;;;;1048755;28;4073;-71
2022/01/05 01:14:36;;;;;;;;;;;;;;;;;;1047528;28;3988;-70
2022/01/05 01:15:08;;;;;;;;;;;;;;;;;;1048004;28;3887;-70
2022/01/05 01:15:38;;;;;;;;;;;;;;;;;;1048843;28;2559;-70
2022/01/05 01:16:08;;;;;;;;;;;;;;;;;;1048843;28;4309;-70
2022/01/05 01:16:39;;;;;;;;;;;;;;;;;;1047023;28;1894;-69
2022/01/05 01:17:09;;;;;;;;;;;;;;;;;;1045985;28;4097;-67
2022/01/05 01:17:39;;;;;;;;;;;;;;;;;;1046936;28;3588;-70
2022/01/05 01:18:10;;;;;;;;;;;;;;;;;;1051967;28;4067;-69
2022/01/05 01:18:40;;;;;;;;;;;;;;;;;;1051686;28;3253;-70
2022/01/05 01:19:11;;;;;;;;;;;;;;;;;;1047092;28;4073;-70
2022/01/05 01:19:42;;;;;;;;;;;;;;;;;;1047320;28;2951;-70
2022/01/05 01:20:12;;;;;;;;;;;;;;;;;;1048362;28;4129;-70
2022/01/05 01:20:42;;;;;;;;;;;;;;;;;;1046853;28;3901;-70
2022/01/05 01:21:12;;;;;;;;;;;;;;;;;;1051147;28;3929;-71
2022/01/05 01:21:43;;;;;;;;;;;;;;;;;;1050811;28;3080;-69
2022/01/05 01:22:13;;;;;;;;;;;;;;;;;;1051229;28;3980;-70
2022/01/05 01:22:43;;;;;;;;;;;;;;;;;;1050952;28;2000;-70
2022/01/05 01:23:14;;;;;;;;;;;;;;;;;;1049114;28;4292;-71
2022/01/05 01:23:54;;;;;;;;;;;;;;;;;;1048437;28;3513;-70
2022/01/05 01:24:25;;;;;;;;;;;;;;;;;;1046917;28;6127;-70
2022/01/05 01:24:55;;;;;;;;;;;;;;;;;;1046761;28;6896;-70
2022/01/05 01:25:25;;;;;;;;;;;;;;;;;;1046647;28;4544;-70
2022/01/05 01:25:56;;;;;;;;;;;;;;;;;;1046788;28;4039;-70
2022/01/05 01:26:27;;;;;;;;;;;;;;;;;;1047563;28;4214;-69
2022/01/05 01:26:58;;;;;;;;;;;;;;;;;;1047281;28;4042;-71
2022/01/05 01:27:28;;;;;;;;;;;;;;;;;;1047597;28;3797;-70
2022/01/05 01:27:59;;;;;;;;;;;;;;;;;;1046115;28;4580;-69
2022/01/05 01:28:29;;;;;;;;;;;;;;;;;;1048297;28;1849;-70
2022/01/05 01:29:00;;;;;;;;;;;;;;;;;;1047625;28;3926;-70
2022/01/05 01:29:30;;;;;;;;;;;;;;;;;;1048438;28;2893;-69
2022/01/05 01:30:01;;;;;;;;;;;;;;;;;;1045573;28;3849;-69
2022/01/05 01:30:32;;;;;;;;;;;;;;;;;;1046263;28;3892;-70
2022/01/05 01:31:02;;;;;;;;;;;;;;;;;;1047392;28;4126;-70
2022/01/05 01:31:33;;;;;;;;;;;;;;;;;;1048871;28;1444;-70
2022/01/05 01:32:04;;;;;;;;;;;;;;;;;;1047915;28;3843;-72
2022/01/05 01:32:35;;;;;;;;;;;;;;;;;;1047580;28;1740;-71
2022/01/05 01:33:06;;;;;;;;;;;;;;;;;;1045150;28;4300;-70
2022/01/05 01:33:37;;;;;;;;;;;;;;;;;;1048666;28;1700;-71
2022/01/05 01:34:07;;;;;;;;;;;;;;;;;;1047370;28;3897;-70
2022/01/05 01:34:37;;;;;;;;;;;;;;;;;;1047123;28;1797;-70
2022/01/05 01:35:08;;;;;;;;;;;;;;;;;;1047187;28;3791;-70
2022/01/05 01:35:38;;;;;;;;;;;;;;;;;;1047360;28;3557;-70
2022/01/05 01:36:08;;;;;;;;;;;;;;;;;;1047504;28;5816;-70
2022/01/05 01:36:38;;;;;;;;;;;;;;;;;;1046540;28;3686;-71
2022/01/05 01:37:09;;;;;;;;;;;;;;;;;;1047591;28;3963;-70
2022/01/05 01:37:39;;;;;;;;;;;;;;;;;;1047886;28;2021;-71
2022/01/05 01:38:09;;;;;;;;;;;;;;;;;;1047149;28;4090;-71
2022/01/05 01:38:41;;;;;;;;;;;;;;;;;;1044088;28;4733;-70
2022/01/05 01:39:11;;;;;;;;;;;;;;;;;;1044794;28;4060;-69
2022/01/05 01:39:42;;;;;;;;;;;;;;;;;;1038071;28;4190;-69
2022/01/05 01:40:12;;;;;;;;;;;;;;;;;;1038502;28;4068;-70
2022/01/05 01:40:42;;;;;;;;;;;;;;;;;;1037856;28;1818;-68
2022/01/05 01:41:13;;;;;;;;;;;;;;;;;;1038356;28;3812;-70
2022/01/05 01:41:43;;;;;;;;;;;;;;;;;;1037939;28;2133;-69
2022/01/05 01:42:13;;;;;;;;;;;;;;;;;;1038758;28;4110;-71
2022/01/05 01:42:44;;;;;;;;;;;;;;;;;;1038968;28;1990;-71
2022/01/05 01:43:15;;;;;;;;;;;;;;;;;;1037189;28;4025;-71
2022/01/05 01:43:45;;;;;;;;;;;;;;;;;;1044590;28;3414;-70
2022/01/05 01:44:16;;;;;;;;;;;;;;;;;;1044784;28;3928;-69
2022/01/05 01:44:47;;;;;;;;;;;;;;;;;;1044034;28;1641;-71
2022/01/05 01:45:18;;;;;;;;;;;;;;;;;;1041614;28;4008;-70
2022/01/05 01:45:48;;;;;;;;;;;;;;;;;;1043624;28;1257;-69
2022/01/05 01:46:19;;;;;;;;;;;;;;;;;;1043203;28;4152;-70
2022/01/05 01:46:50;;;;;;;;;;;;;;;;;;1042956;28;2927;-69
2022/01/05 01:47:20;;;;;;;;;;;;;;;;;;1042789;28;4181;-69
2022/01/05 01:47:50;;;;;;;;;;;;;;;;;;1042975;28;4285;-69
2022/01/05 01:48:20;;;;;;;;;;;;;;;;;;1042987;28;3984;-70
2022/01/05 01:48:51;;;;;;;;;;;;;;;;;;1043530;28;4075;-70
2022/01/05 01:49:21;;;;;;;;;;;;;;;;;;1043239;28;3105;-70
2022/01/05 01:49:51;;;;;;;;;;;;;;;;;;1043544;28;3804;-69
2022/01/05 01:50:21;;;;;;;;;;;;;;;;;;1042012;28;3919;-69
2022/01/05 01:50:52;;;;;;;;;;;;;;;;;;1042480;28;3912;-71
2022/01/05 01:51:22;;;;;;;;;;;;;;;;;;1043873;28;2987;-70
2022/01/05 01:51:52;;;;;;;;;;;;;;;;;;1042254;28;4280;-70
2022/01/05 01:52:22;;;;;;;;;;;;;;;;;;1044745;28;1650;-70
2022/01/05 01:52:53;;;;;;;;;;;;;;;;;;1040923;28;3936;-70
2022/01/05 01:53:23;;;;;;;;;;;;;;;;;;1040263;28;2461;-70
2022/01/05 01:53:54;;;;;;;;;;;;;;;;;;1040101;28;3820;-69
2022/01/05 01:54:24;;;;;;;;;;;;;;;;;;1037399;28;1630;-71
2022/01/05 01:54:54;;;;;;;;;;;;;;;;;;1038242;28;4045;-70
2022/01/05 01:55:25;;;;;;;;;;;;;;;;;;1038262;28;3951;-71
2022/01/05 01:55:57;;;;;;;;;;;;;;;;;;1039201;28;3927;-69
2022/01/05 01:56:30;;;;;;;;;;;;;;;;;;1043979;28;3272;-70
2022/01/05 01:57:01;;;;;;;;;;;;;;;;;;1043125;28;3816;-71
2022/01/05 01:57:33;;;;;;;;;;;;;;;;;;1044513;28;1598;-71
2022/01/05 01:58:04;;;;;;;;;;;;;;;;;;1043210;28;3909;-71
2022/01/05 01:58:35;;;;;;;;;;;;;;;;;;1043032;28;3408;-70
2022/01/05 01:59:06;;;;;;;;;;;;;;;;;;1042622;28;4157;-71
2022/01/05 01:59:37;;;;;;;;;;;;;;;;;;1044433;28;2072;-70
2022/01/05 02:00:08;;;;;;;;;;;;;;;;;;1040623;28;4235;-70
2022/01/05 02:00:38;;;;;;;;;;;;;;;;;;1043453;28;3993;-70
2022/01/05 02:01:08;;;;;;;;;;;;;;;;;;1042118;28;3849;-70
2022/01/05 02:01:39;;;;;;;;;;;;;;;;;;1043113;28;1626;-71
2022/01/05 02:02:10;;;;;;;;;;;;;;;;;;1043973;28;3876;-70
2022/01/05 02:02:41;;;;;;;;;;;;;;;;;;1042863;28;2027;-70
2022/01/05 02:03:14;;;;;;;;;;;;;;;;;;1043610;28;4096;-70
2022/01/05 02:03:44;;;;;;;;;;;;;;;;;;1039537;28;4171;-71
2022/01/05 02:04:14;;;;;;;;;;;;;;;;;;1040758;28;4168;-71
2022/01/05 02:04:45;;;;;;;;;;;;;;;;;;1037415;28;2734;-70
2022/01/05 02:05:15;;;;;;;;;;;;;;;;;;1037154;28;3960;-70
2022/01/05 02:05:45;;;;;;;;;;;;;;;;;;1039494;28;2707;-71
2022/01/05 02:06:16;;;;;;;;;;;;;;;;;;1037353;28;3888;-70
2022/01/05 02:06:46;;;;;;;;;;;;;;;;;;1038711;28;2133;-71
2022/01/05 02:07:16;;;;;;;;;;;;;;;;;;1037548;28;4179;-70
2022/01/05 02:07:46;;;;;;;;;;;;;;;;;;1039292;28;3365;-71
2022/01/05 02:08:17;;;;;;;;;;;;;;;;;;1036092;28;4162;-69
2022/01/05 02:08:48;;;;;;;;;;;;;;;;;;1039597;28;4174;-71
2022/01/05 02:09:18;;;;;;;;;;;;;;;;;;1034723;28;3904;-70
2022/01/05 02:09:49;;;;;;;;;;;;;;;;;;1036967;28;3919;-70
2022/01/05 02:10:19;;;;;;;;;;;;;;;;;;1035290;28;3824;-70
2022/01/05 02:10:49;;;;;;;;;;;;;;;;;;1035840;28;2080;-70
2022/01/05 02:11:20;;;;;;;;;;;;;;;;;;1038311;28;3887;-71
2022/01/05 02:11:50;;;;;;;;;;;;;;;;;;1038406;28;3256;-70
2022/01/05 02:12:22;;;;;;;;;;;;;;;;;;1038621;28;3935;-71
2022/01/05 02:12:52;;;;;;;;;;;;;;;;;;1039450;28;4055;-70
2022/01/05 02:13:22;;;;;;;;;;;;;;;;;;1038738;28;1833;-71
2022/01/05 02:13:53;;;;;;;;;;;;;;;;;;1038343;28;4101;-70
2022/01/05 02:14:23;;;;;;;;;;;;;;;;;;1044992;28;2255;-70
2022/01/05 02:14:54;;;;;;;;;;;;;;;;;;1038181;28;4015;-69
2022/01/05 02:15:24;;;;;;;;;;;;;;;;;;1037292;28;4068;-70
2022/01/05 02:15:54;;;;;;;;;;;;;;;;;;1038325;28;4011;-70
2022/01/05 02:16:30;;;;;;;;;;;;;;;;;;1037458;28;3766;-70
2022/01/05 02:17:04;;;;;;;;;;;;;;;;;;1043068;28;3918;-70
2022/01/05 02:17:47;;;;;;;;;;;;;;;;;;1045117;28;2261;-68
2022/01/05 02:19:00;;;;;;;;;;;;;;;;;;1042513;28;3827;-69
2022/01/05 02:19:31;;;;;;;;;;;;;;;;;;1042258;28;3873;-70
2022/01/05 02:20:10;;;;;;;;;;;;;;;;;;1042406;28;4223;-70
2022/01/05 02:20:40;;;;;;;;;;;;;;;;;;1043790;28;3650;-70
2022/01/05 02:21:12;;;;;;;;;;;;;;;;;;1042857;28;4122;-69
2022/01/05 02:21:42;;;;;;;;;;;;;;;;;;1043603;28;1350;-70
2022/01/05 02:22:12;;;;;;;;;;;;;;;;;;1042720;28;4149;-71
2022/01/05 02:22:43;;;;;;;;;;;;;;;;;;1043316;28;3400;-70
2022/01/05 02:23:13;;;;;;;;;;;;;;;;;;1042228;28;4037;-68
2022/01/05 02:23:43;;;;;;;;;;;;;;;;;;1042172;28;3181;-71
2022/01/05 02:24:14;;;;;;;;;;;;;;;;;;1042822;28;3817;-70
2022/01/05 02:24:47;;;;;;;;;;;;;;;;;;1042652;28;3250;-70
2022/01/05 02:25:17;;;;;;;;;;;;;;;;;;1043356;28;4089;-70
2022/01/05 02:25:47;;;;;;;;;;;;;;;;;;1043362;28;2345;-71
2022/01/05 02:26:18;;;;;;;;;;;;;;;;;;1039768;28;3905;-71
2022/01/05 02:26:48;;;;;;;;;;;;;;;;;;1039168;28;1527;-70
2022/01/05 02:27:18;;;;;;;;;;;;;;;;;;1038153;28;4109;-70
2022/01/05 02:27:50;;;;;;;;;;;;;;;;;;1038911;28;3206;-70
2022/01/05 02:28:20;;;;;;;;;;;;;;;;;;1042730;28;4015;-71
2022/01/05 02:28:50;;;;;;;;;;;;;;;;;;1042823;28;4003;-70
2022/01/05 02:29:21;;;;;;;;;;;;;;;;;;1043237;28;3565;-71
2022/01/05 02:29:52;;;;;;;;;;;;;;;;;;1043676;28;3987;-71
2022/01/05 02:30:26;;;;;;;;;;;;;;;;;;1044980;28;3878;-69
2022/01/05 02:30:57;;;;;;;;;;;;;;;;;;1042115;28;3925;-71
2022/01/05 02:31:27;;;;;;;;;;;;;;;;;;1044261;28;1917;-69
2022/01/05 02:32:00;;;;;;;;;;;;;;;;;;1044557;28;4043;-70
2022/01/05 02:32:30;;;;;;;;;;;;;;;;;;1045548;28;2107;-70
2022/01/05 02:33:01;;;;;;;;;;;;;;;;;;1043404;28;3934;-69
2022/01/05 02:33:32;;;;;;;;;;;;;;;;;;1044460;28;3341;-70
2022/01/05 02:34:02;;;;;;;;;;;;;;;;;;1043679;28;4042;-70
2022/01/05 02:34:33;;;;;;;;;;;;;;;;;;1044403;28;4400;-71
2022/01/05 02:35:04;;;;;;;;;;;;;;;;;;1042939;28;4326;-70
2022/01/05 02:35:34;;;;;;;;;;;;;;;;;;1043733;28;4373;-70
2022/01/05 02:36:05;;;;;;;;;;;;;;;;;;1043498;28;3926;-70
2022/01/05 02:36:35;;;;;;;;;;;;;;;;;;1044339;28;2072;-70
2022/01/05 02:37:05;;;;;;;;;;;;;;;;;;1042261;28;4059;-70
2022/01/05 02:37:46;;;;;;;;;;;;;;;;;;1043806;28;1896;-70
2022/01/05 02:38:17;;;;;;;;;;;;;;;;;;1042857;28;3851;-70
2022/01/05 02:38:48;;;;;;;;;;;;;;;;;;1043518;28;3063;-70
2022/01/05 02:39:18;;;;;;;;;;;;;;;;;;1043036;28;4014;-71
2022/01/05 02:39:48;;;;;;;;;;;;;;;;;;1043824;28;1690;-70
2022/01/05 02:40:20;;;;;;;;;;;;;;;;;;1042641;28;4025;-70
2022/01/05 02:40:50;;;;;;;;;;;;;;;;;;1042149;28;3683;-70
2022/01/05 02:41:21;;;;;;;;;;;;;;;;;;1041660;28;3907;-71
2022/01/05 02:41:52;;;;;;;;;;;;;;;;;;1040822;28;4050;-71
2022/01/05 02:42:26;;;;;;;;;;;;;;;;;;1041962;28;3769;-69
2022/01/05 02:42:57;;;;;;;;;;;;;;;;;;1044003;28;3922;-71
2022/01/05 02:43:27;;;;;;;;;;;;;;;;;;1043200;28;3736;-71
2022/01/05 02:43:57;;;;;;;;;;;;;;;;;;1041282;28;4030;-71
2022/01/05 02:44:27;;;;;;;;;;;;;;;;;;1041843;28;3929;-69
2022/01/05 02:44:58;;;;;;;;;;;;;;;;;;1037819;28;3943;-69
2022/01/05 02:45:28;;;;;;;;;;;;;;;;;;1037473;28;3221;-70
2022/01/05 02:45:58;;;;;;;;;;;;;;;;;;1037250;28;3876;-70
2022/01/05 02:46:29;;;;;;;;;;;;;;;;;;1037690;28;3968;-71
2022/01/05 02:47:00;;;;;;;;;;;;;;;;;;1042178;28;3956;-71
2022/01/05 02:47:31;;;;;;;;;;;;;;;;;;1041376;28;4296;-71
2022/01/05 02:48:02;;;;;;;;;;;;;;;;;;1041544;28;3958;-70
2022/01/05 02:48:33;;;;;;;;;;;;;;;;;;1041023;28;3622;-71
2022/01/05 02:49:04;;;;;;;;;;;;;;;;;;1041907;28;3876;-69
2022/01/05 02:49:34;;;;;;;;;;;;;;;;;;1041238;28;4014;-71
2022/01/05 02:50:06;;;;;;;;;;;;;;;;;;1041555;28;4054;-70
2022/01/05 02:50:36;;;;;;;;;;;;;;;;;;1041570;28;3753;-69
2022/01/05 02:51:06;;;;;;;;;;;;;;;;;;1042946;28;3866;-70
2022/01/05 02:51:37;;;;;;;;;;;;;;;;;;1042068;28;3756;-70
2022/01/05 02:52:07;;;;;;;;;;;;;;;;;;1042090;28;3861;-68
2022/01/05 02:52:37;;;;;;;;;;;;;;;;;;1043074;28;4013;-70
2022/01/05 02:53:08;;;;;;;;;;;;;;;;;;1042163;28;4065;-71
2022/01/05 02:53:38;;;;;;;;;;;;;;;;;;1043259;28;3233;-71
2022/01/05 02:54:08;;;;;;;;;;;;;;;;;;1043933;28;5027;-70
2022/01/05 02:54:38;;;;;;;;;;;;;;;;;;1043911;28;1327;-70
2022/01/05 02:55:09;;;;;;;;;;;;;;;;;;1041403;28;4034;-71
2022/01/05 02:55:39;;;;;;;;;;;;;;;;;;1043802;28;3580;-70
2022/01/05 02:56:10;;;;;;;;;;;;;;;;;;1038866;28;4084;-69
2022/01/05 02:56:40;;;;;;;;;;;;;;;;;;1039156;28;2963;-69
2022/01/05 02:57:10;;;;;;;;;;;;;;;;;;1039682;28;3884;-71
2022/01/05 02:57:41;;;;;;;;;;;;;;;;;;1039488;28;3602;-70
2022/01/05 02:58:11;;;;;;;;;;;;;;;;;;1044518;28;3851;-70
2022/01/05 02:58:41;;;;;;;;;;;;;;;;;;1045849;28;1703;-69
2022/01/05 02:59:11;;;;;;;;;;;;;;;;;;1043941;28;3940;-69
2022/01/05 02:59:42;;;;;;;;;;;;;;;;;;1042646;28;3801;-71
2022/01/05 03:00:13;;;;;;;;;;;;;;;;;;1040375;28;3815;-70
2022/01/05 03:00:44;;;;;;;;;;;;;;;;;;1043181;28;1699;-69
2022/01/05 03:01:14;;;;;;;;;;;;;;;;;;1042624;28;4031;-70
2022/01/05 03:01:44;;;;;;;;;;;;;;;;;;1043660;28;2055;-70
2022/01/05 03:02:14;;;;;;;;;;;;;;;;;;1043294;28;4036;-71
2022/01/05 03:02:45;;;;;;;;;;;;;;;;;;1043947;28;2160;-70
2022/01/05 03:03:15;;;;;;;;;;;;;;;;;;1043088;28;4033;-70
2022/01/05 03:03:45;;;;;;;;;;;;;;;;;;1043211;28;2122;-70
2022/01/05 03:04:15;;;;;;;;;;;;;;;;;;1044915;28;4043;-70
2022/01/05 03:04:46;;;;;;;;;;;;;;;;;;1045029;28;2194;-70
2022/01/05 03:05:16;;;;;;;;;;;;;;;;;;1039514;28;3957;-70
2022/01/05 03:05:46;;;;;;;;;;;;;;;;;;1038318;28;1355;-70
2022/01/05 03:06:17;;;;;;;;;;;;;;;;;;1038281;28;4189;-70
2022/01/05 03:06:48;;;;;;;;;;;;;;;;;;1039037;28;2130;-70
2022/01/05 03:07:18;;;;;;;;;;;;;;;;;;1040696;28;4384;-69
2022/01/05 03:07:48;;;;;;;;;;;;;;;;;;1041966;28;3538;-69
2022/01/05 03:08:19;;;;;;;;;;;;;;;;;;1043892;28;3997;-70
2022/01/05 03:08:49;;;;;;;;;;;;;;;;;;1044046;28;4271;-70
2022/01/05 03:09:19;;;;;;;;;;;;;;;;;;1042690;28;4123;-68
2022/01/05 03:09:49;;;;;;;;;;;;;;;;;;1044516;28;3325;-71
2022/01/05 03:10:20;;;;;;;;;;;;;;;;;;1042994;28;4100;-71
2022/01/05 03:10:50;;;;;;;;;;;;;;;;;;1044941;28;1138;-68
2022/01/05 03:11:21;;;;;;;;;;;;;;;;;;1044157;28;3751;-71
2022/01/05 03:11:51;;;;;;;;;;;;;;;;;;1043214;28;4248;-71
2022/01/05 03:12:21;;;;;;;;;;;;;;;;;;1044385;28;1823;-69
2022/01/05 03:12:52;;;;;;;;;;;;;;;;;;1043366;28;3949;-71
2022/01/05 03:13:23;;;;;;;;;;;;;;;;;;1041935;28;3740;-70
2022/01/05 03:13:53;;;;;;;;;;;;;;;;;;1042474;28;3818;-69
2022/01/05 03:14:23;;;;;;;;;;;;;;;;;;1043104;28;3676;-71
2022/01/05 03:14:54;;;;;;;;;;;;;;;;;;1043412;28;3917;-69
2022/01/05 03:15:24;;;;;;;;;;;;;;;;;;1043208;28;3299;-70
2022/01/05 03:15:56;;;;;;;;;;;;;;;;;;1043399;28;4098;-71
2022/01/05 03:16:26;;;;;;;;;;;;;;;;;;1043010;28;3147;-70
2022/01/05 03:16:56;;;;;;;;;;;;;;;;;;1043024;28;4166;-70
2022/01/05 03:17:26;;;;;;;;;;;;;;;;;;1043755;28;1862;-70
2022/01/05 03:17:57;;;;;;;;;;;;;;;;;;1043938;28;4098;-70
2022/01/05 03:18:27;;;;;;;;;;;;;;;;;;1043909;28;3401;-71
2022/01/05 03:18:57;;;;;;;;;;;;;;;;;;1043756;28;3958;-70
2022/01/05 03:19:28;;;;;;;;;;;;;;;;;;1044728;28;2704;-71
2022/01/05 03:19:58;;;;;;;;;;;;;;;;;;1043903;28;3909;-70
2022/01/05 03:20:30;;;;;;;;;;;;;;;;;;1044047;28;3389;-69
2022/01/05 03:21:00;;;;;;;;;;;;;;;;;;1044058;28;4160;-69
2022/01/05 03:21:30;;;;;;;;;;;;;;;;;;1044595;28;2014;-69
2022/01/05 03:22:01;;;;;;;;;;;;;;;;;;1044653;28;4031;-69
2022/01/05 03:22:31;;;;;;;;;;;;;;;;;;1043313;28;3186;-68
2022/01/05 03:23:03;;;;;;;;;;;;;;;;;;1043688;28;3793;-71
2022/01/05 03:23:34;;;;;;;;;;;;;;;;;;1043491;28;2743;-70
2022/01/05 03:24:04;;;;;;;;;;;;;;;;;;1043989;28;4397;-70
2022/01/05 03:24:34;;;;;;;;;;;;;;;;;;1043473;28;7050;-70
2022/01/05 03:25:05;;;;;;;;;;;;;;;;;;1044719;28;4169;-71
2022/01/05 03:25:35;;;;;;;;;;;;;;;;;;1042227;28;2235;-69
2022/01/05 03:26:06;;;;;;;;;;;;;;;;;;1043292;28;4183;-71
2022/01/05 03:26:36;;;;;;;;;;;;;;;;;;1041991;28;4038;-71
2022/01/05 03:27:06;;;;;;;;;;;;;;;;;;1043337;28;4206;-70
2022/01/05 03:27:37;;;;;;;;;;;;;;;;;;1044412;28;1781;-70
2022/01/05 03:28:08;;;;;;;;;;;;;;;;;;1044259;28;3880;-70
2022/01/05 03:28:38;;;;;;;;;;;;;;;;;;1044602;28;4025;-70
2022/01/05 03:29:08;;;;;;;;;;;;;;;;;;1043462;28;4403;-70
2022/01/05 03:29:39;;;;;;;;;;;;;;;;;;1043920;28;3283;-70
2022/01/05 03:30:10;;;;;;;;;;;;;;;;;;1043449;28;4386;-69
2022/01/05 03:30:41;;;;;;;;;;;;;;;;;;1044083;28;2408;-70
2022/01/05 03:31:11;;;;;;;;;;;;;;;;;;1043991;28;3924;-69
2022/01/05 03:31:41;;;;;;;;;;;;;;;;;;1042916;28;3978;-71
2022/01/05 03:32:11;;;;;;;;;;;;;;;;;;1042603;28;4100;-71
2022/01/05 03:33:02;;;;;;;;;;;;;;;;;;1044023;28;2381;-70
2022/01/05 03:33:32;;;;;;;;;;;;;;;;;;1043528;28;3691;-70
2022/01/05 03:34:04;;;;;;;;;;;;;;;;;;1043235;28;3804;-70